首页
METAR-TAF:

METAR-TAF

机场 :

馬累, 马尔代夫

易卜拉欣·納西爾國際機場

纬度: 04-12N, 经度: 073-32E, 海拔: 2米

当前天气观测

该预报发布于1小时和24分钟前的02:00 UTC
风速9节,风向东转东北
温度 27°C
湿度 74%
气压 1011 hPa
能見度: 7000
少量云层高于1800英尺
多云层高于27000英尺

METAR: VRMM 200200Z 06009KT 7000 FEW018 BKN270 27/22 Q1011 NOSIG

时间: 08:24 (03:24 UTC)

预报

该预报发布于4小时和24分钟前的23:00 UTC
预报有效从20日的 00点(UTC)到 21日的 06点(UTC)
风速14节,风向东转东北
能見度: 7000
少量云层高于1800英尺
短暂存在
从 20日的 03点(UTC)到 20日的 09点(UTC)
少量云层高于1900英尺, 积雨云.

TAF: VRMM 192300Z 2000/2106 07014KT 7000 FEW018 TEMPO 2003/2009 FEW019CB

超过4000个机场的气象观测和天气预报(METAR&TAF报告)。

可查询的气象台以黄色和红色小点在地图上表示。

将鼠标移到小点上方,可查看气象台名称。

然后点击查看天气观测和预报。

如需切换地图:点击带黑十字的绿色按钮放大地图;点击带横线的绿色按钮缩小地图;或者点击绿色箭头查看邻近地区的地图。


METAR-TAF: